Angelim, Brazil
Current Conditions -  °F | °C
As of 5:00 AM on Wednesday 22 Oct 2014 (Local Time) from SBMO Reporting Station
Scattered Clouds Scattered Clouds  
Wind Chill: 64°   Ceiling: Unl
Heat Index: 64°   Visibility: 6mi
Dew Point: 64°   Wind: 2mph
Humidity: 100%   Direction: 360°N
Pressure: 29.97"   Gusts: NA
Location:  8.89°S, 36.29°W
Report Text: SBMO 220800Z 36002KT 9999 SCT020 18/18 Q1015
Loading
Personal Weather Stations






























Interactive Weather Map
Tropical Storm Tracking
New forecast layout! Learn more

10-Day Weather Forecast

Advertisements
Track Severe Weather on mobile